Time;durP1;ratioP1;P1;durP2;ratioP2;P2;SDS_P1;SDS_P2;PMS_P1;PMS_P2;Temp;Humidity;BMP_temperature;BMP_pressure;BME280_temperature;BME280_humidity;BME280_pressure;Samples;Min_cycle;Max_cycle;Signal;HPM_P1;HPM_P2
2024/01/15 00:00:19;;;;;;;82.80;56.37;;;5.10;99.90;;;;;;6307082;22;19999;-65
2024/01/15 00:02:47;;;;;;;86.10;56.00;;;5.20;99.90;;;;;;6307122;22;20010;-64
2024/01/15 00:05:13;;;;;;;85.20;55.97;;;5.20;99.90;;;;;;6307209;22;20444;-65
2024/01/15 00:07:38;;;;;;;82.93;55.40;;;5.20;99.90;;;;;;6307629;22;19999;-65
2024/01/15 00:10:04;;;;;;;82.53;52.50;;;5.20;99.90;;;;;;6307764;22;20015;-64
2024/01/15 00:12:30;;;;;;;77.57;52.27;;;5.20;99.90;;;;;;6307344;22;20000;-66
2024/01/15 00:14:56;;;;;;;81.27;54.13;;;5.20;99.90;;;;;;6307266;22;20003;-65
2024/01/15 00:17:21;;;;;;;74.47;51.53;;;5.20;99.90;;;;;;6307266;22;20006;-64
2024/01/15 00:19:47;;;;;;;79.73;52.67;;;5.20;99.90;;;;;;6306901;22;19999;-65
2024/01/15 00:22:13;;;;;;;77.77;53.03;;;5.20;99.90;;;;;;6306843;22;20003;-65
2024/01/15 00:24:38;;;;;;;77.60;51.73;;;5.20;99.90;;;;;;6306730;22;20015;-64
2024/01/15 00:27:04;;;;;;;79.33;51.33;;;5.20;99.90;;;;;;6307262;22;20056;-64
2024/01/15 00:29:30;;;;;;;71.23;49.07;;;5.20;99.90;;;;;;6306888;22;20000;-65
2024/01/15 00:31:56;;;;;;;74.93;51.77;;;5.20;99.90;;;;;;6307048;22;19999;-65
2024/01/15 00:34:22;;;;;;;77.33;50.20;;;5.20;99.90;;;;;;6307012;22;20005;-64
2024/01/15 00:36:48;;;;;;;76.53;47.97;;;5.20;99.90;;;;;;6307504;22;20030;-65
2024/01/15 00:39:13;;;;;;;74.27;49.00;;;5.20;99.90;;;;;;6306912;22;20007;-65
2024/01/15 00:41:39;;;;;;;69.87;46.27;;;5.20;99.90;;;;;;6307351;22;20333;-65
2024/01/15 00:44:05;;;;;;;73.67;47.23;;;5.30;99.90;;;;;;6306950;22;20090;-64
2024/01/15 00:46:31;;;;;;;68.07;45.97;;;5.20;99.90;;;;;;6306839;22;20003;-65
2024/01/15 00:48:56;;;;;;;73.83;48.93;;;5.30;99.90;;;;;;6306864;22;20057;-65
2024/01/15 00:51:23;;;;;;;69.43;48.13;;;5.30;99.90;;;;;;6306743;22;20070;-65
2024/01/15 00:53:48;;;;;;;70.63;49.43;;;5.30;99.90;;;;;;6306654;22;20397;-65
2024/01/15 00:56:14;;;;;;;70.80;48.20;;;5.30;99.90;;;;;;6306912;22;20000;-65
2024/01/15 00:58:40;;;;;;;67.50;47.10;;;5.30;99.90;;;;;;6306989;22;20007;-65
2024/01/15 01:01:05;;;;;;;69.90;46.50;;;5.30;99.90;;;;;;6306757;22;19999;-65
2024/01/15 01:03:31;;;;;;;73.80;49.73;;;5.30;99.90;;;;;;6306433;22;19999;-65
2024/01/15 01:05:57;;;;;;;72.33;48.37;;;5.30;99.90;;;;;;6306888;22;20006;-65
2024/01/15 01:08:22;;;;;;;70.83;48.80;;;5.30;99.90;;;;;;6306823;22;20007;-65
2024/01/15 01:10:48;;;;;;;68.07;45.97;;;5.30;99.90;;;;;;6306989;22;20010;-66
2024/01/15 01:13:14;;;;;;;69.37;47.17;;;5.30;99.90;;;;;;6306740;22;20041;-64
2024/01/15 01:15:40;;;;;;;72.23;46.87;;;5.30;99.90;;;;;;6306837;22;20007;-65
2024/01/15 01:18:05;;;;;;;64.83;45.03;;;5.30;99.90;;;;;;6306640;22;20325;-65
2024/01/15 01:20:31;;;;;;;63.47;41.67;;;5.30;99.90;;;;;;6306592;22;20006;-65
2024/01/15 01:22:57;;;;;;;62.80;41.17;;;5.30;99.90;;;;;;6306670;22;20003;-64
2024/01/15 01:25:22;;;;;;;66.83;43.37;;;5.30;99.90;;;;;;6306540;22;20007;-65
2024/01/15 01:27:48;;;;;;;65.73;43.37;;;5.30;99.90;;;;;;6307031;22;20003;-65
2024/01/15 01:30:14;;;;;;;65.47;42.57;;;5.30;99.90;;;;;;6307125;22;20003;-65
2024/01/15 01:32:40;;;;;;;60.37;40.87;;;5.30;99.90;;;;;;6306472;22;19999;-65
2024/01/15 01:35:06;;;;;;;61.93;41.43;;;5.30;99.90;;;;;;6306777;22;20010;-65
2024/01/15 01:37:34;;;;;;;61.20;40.87;;;5.40;99.90;;;;;;6306925;22;19999;-65
2024/01/15 01:39:59;;;;;;;59.27;39.63;;;5.30;99.90;;;;;;6306634;22;20449;-65
2024/01/15 01:42:25;;;;;;;58.63;39.50;;;5.30;99.90;;;;;;6306635;22;20042;-65
2024/01/15 01:44:51;;;;;;;57.60;40.47;;;5.30;99.90;;;;;;6306705;22;20306;-65
2024/01/15 01:47:18;;;;;;;54.20;37.03;;;5.30;99.90;;;;;;6306751;22;20018;-65
2024/01/15 01:49:44;;;;;;;58.10;39.27;;;5.30;99.90;;;;;;6306502;22;20086;-65
2024/01/15 01:52:10;;;;;;;52.63;36.93;;;5.40;99.90;;;;;;6306613;22;20034;-65
2024/01/15 01:54:38;;;;;;;52.17;37.30;;;5.30;99.90;;;;;;6306459;22;20030;-65
2024/01/15 01:57:05;;;;;;;54.93;36.70;;;5.30;99.90;;;;;;6306484;22;20003;-65
2024/01/15 01:59:34;;;;;;;56.47;36.43;;;5.40;99.90;;;;;;6302967;22;20060;-65
2024/01/15 02:02:03;;;;;;;54.63;36.27;;;5.40;99.90;;;;;;6303136;22;20010;-66
2024/01/15 02:04:31;;;;;;;54.57;35.30;;;5.40;99.90;;;;;;6304298;22;20056;-65
2024/01/15 02:06:57;;;;;;;50.60;33.07;;;5.40;99.90;;;;;;6306359;22;19997;-65
2024/01/15 02:09:22;;;;;;;51.33;35.40;;;5.40;99.90;;;;;;6306385;22;20003;-64
2024/01/15 02:11:49;;;;;;;48.90;35.63;;;5.40;99.90;;;;;;6306651;22;20068;-64
2024/01/15 02:14:15;;;;;;;47.27;34.93;;;5.40;99.90;;;;;;6305968;22;20078;-64
2024/01/15 02:16:40;;;;;;;48.53;34.43;;;5.40;99.90;;;;;;6306049;22;20092;-64
2024/01/15 02:19:06;;;;;;;53.93;34.10;;;5.40;99.90;;;;;;6306097;22;20000;-65
2024/01/15 02:21:32;;;;;;;55.03;36.70;;;5.50;99.90;;;;;;6306930;22;19995;-65
2024/01/15 02:23:58;;;;;;;54.13;36.17;;;5.50;99.90;;;;;;6308285;22;20072;-65
2024/01/15 02:26:24;;;;;;;55.73;36.40;;;5.50;99.90;;;;;;6308530;22;19996;-64
2024/01/15 02:28:51;;;;;;;55.07;38.27;;;5.50;99.90;;;;;;6308109;22;20074;-65
2024/01/15 02:31:17;;;;;;;55.83;37.63;;;5.50;99.90;;;;;;6308480;22;19996;-65
2024/01/15 02:33:45;;;;;;;59.17;41.23;;;5.40;99.90;;;;;;6308487;22;20003;-65
2024/01/15 02:36:11;;;;;;;56.37;39.80;;;5.50;99.90;;;;;;6308008;22;20486;-65
2024/01/15 02:38:37;;;;;;;55.50;38.83;;;5.50;99.90;;;;;;6308369;22;20000;-65
2024/01/15 02:41:03;;;;;;;60.33;39.50;;;5.50;99.90;;;;;;6308352;22;20374;-65
2024/01/15 02:43:28;;;;;;;59.07;41.33;;;5.40;99.90;;;;;;6307557;22;20007;-64
2024/01/15 02:45:54;;;;;;;59.20;40.10;;;5.40;99.90;;;;;;6308102;22;20010;-65
2024/01/15 02:48:20;;;;;;;59.63;39.97;;;5.40;99.90;;;;;;6308074;22;20074;-65
2024/01/15 02:50:46;;;;;;;59.97;39.63;;;5.40;99.90;;;;;;6308147;22;20010;-65
2024/01/15 02:53:11;;;;;;;60.87;40.63;;;5.40;99.90;;;;;;6307842;22;20026;-64
2024/01/15 02:55:37;;;;;;;53.87;37.50;;;5.40;99.90;;;;;;6306722;22;20045;-65
2024/01/15 02:58:03;;;;;;;51.60;36.90;;;5.40;99.90;;;;;;6308114;22;20074;-65
2024/01/15 03:00:29;;;;;;;59.53;38.73;;;5.40;99.90;;;;;;6308266;22;20006;-65
2024/01/15 03:02:55;;;;;;;57.37;38.17;;;5.40;99.90;;;;;;6307986;22;20042;-64
2024/01/15 03:05:21;;;;;;;61.40;39.50;;;5.40;99.90;;;;;;6308050;22;20011;-65
2024/01/15 03:07:47;;;;;;;54.97;37.80;;;5.40;99.90;;;;;;6307988;22;20417;-66
2024/01/15 03:10:13;;;;;;;53.03;37.23;;;5.40;99.90;;;;;;6308218;22;20086;-65
2024/01/15 03:12:39;;;;;;;57.17;37.57;;;5.40;99.90;;;;;;6307858;22;20054;-64
2024/01/15 03:15:05;;;;;;;52.93;35.50;;;5.50;99.90;;;;;;6308085;22;20030;-65
2024/01/15 03:17:31;;;;;;;54.27;36.73;;;5.40;99.90;;;;;;6307751;22;20078;-64
2024/01/15 03:19:56;;;;;;;56.63;37.00;;;5.40;99.90;;;;;;6307866;22;19999;-65
2024/01/15 03:22:22;;;;;;;57.67;37.47;;;5.50;99.90;;;;;;6308007;22;20003;-64
2024/01/15 03:24:48;;;;;;;53.60;36.97;;;5.50;99.90;;;;;;6308004;22;20385;-65
2024/01/15 03:27:14;;;;;;;55.23;36.67;;;5.50;99.90;;;;;;6307648;22;19999;-64
2024/01/15 03:29:41;;;;;;;52.80;36.30;;;5.50;99.90;;;;;;6307503;22;20029;-65
2024/01/15 03:32:07;;;;;;;53.77;35.73;;;5.50;99.90;;;;;;6307521;22;20003;-64
2024/01/15 03:34:32;;;;;;;50.73;35.67;;;5.50;99.90;;;;;;6307573;22;20061;-64
2024/01/15 03:36:59;;;;;;;53.33;35.30;;;5.60;99.90;;;;;;6307975;22;19999;-65
2024/01/15 03:39:25;;;;;;;51.83;36.60;;;5.60;99.90;;;;;;6307473;22;20010;-65
2024/01/15 03:41:51;;;;;;;54.60;37.70;;;5.60;99.90;;;;;;6307748;22;19999;-65
2024/01/15 03:44:16;;;;;;;52.10;36.93;;;5.60;99.90;;;;;;6306076;22;20015;-65
2024/01/15 03:46:42;;;;;;;55.77;38.27;;;5.60;99.90;;;;;;6307508;22;20035;-64
2024/01/15 03:49:08;;;;;;;62.17;40.23;;;5.60;99.90;;;;;;6307448;22;20022;-64
2024/01/15 03:51:33;;;;;;;59.87;38.53;;;5.50;99.90;;;;;;6307508;22;20026;-65
2024/01/15 03:53:59;;;;;;;55.60;38.23;;;5.50;99.90;;;;;;6307987;22;20008;-65
2024/01/15 03:56:25;;;;;;;60.40;38.67;;;5.50;99.90;;;;;;6307517;22;19995;-65
2024/01/15 03:58:51;;;;;;;56.27;39.07;;;5.50;99.90;;;;;;6307384;22;20360;-67
2024/01/15 04:01:16;;;;;;;60.43;39.83;;;5.50;99.90;;;;;;6307005;22;20003;-65
2024/01/15 04:03:42;;;;;;;59.73;39.83;;;5.50;99.90;;;;;;6307472;22;19999;-65
2024/01/15 04:06:08;;;;;;;61.27;40.87;;;5.50;99.90;;;;;;6307640;22;19999;-65
2024/01/15 04:08:33;;;;;;;70.57;40.93;;;5.40;99.90;;;;;;6307374;22;20003;-65
2024/01/15 04:10:59;;;;;;;61.03;40.90;;;5.40;99.90;;;;;;6307542;22;20114;-64
2024/01/15 04:13:25;;;;;;;60.47;40.17;;;5.40;99.90;;;;;;6306883;22;20116;-65
2024/01/15 04:15:51;;;;;;;60.60;40.77;;;5.40;99.90;;;;;;6306751;22;19999;-65
2024/01/15 04:18:19;;;;;;;61.47;41.43;;;5.40;99.90;;;;;;6306933;22;19995;-65
2024/01/15 04:20:45;;;;;;;61.97;42.53;;;5.40;99.90;;;;;;6307311;22;20340;-66
2024/01/15 04:23:10;;;;;;;61.63;42.20;;;5.40;99.90;;;;;;6307165;22;20027;-66
2024/01/15 04:25:36;;;;;;;57.57;38.33;;;5.50;99.90;;;;;;6307244;22;20043;-67
2024/01/15 04:28:02;;;;;;;64.77;40.50;;;5.40;99.90;;;;;;6307324;22;20041;-65
2024/01/15 04:30:28;;;;;;;58.23;39.83;;;5.40;99.90;;;;;;6306801;22;20060;-65
2024/01/15 04:32:54;;;;;;;58.37;38.67;;;5.50;99.90;;;;;;6306489;22;19999;-64
2024/01/15 04:35:19;;;;;;;57.57;39.40;;;5.50;99.90;;;;;;6306540;22;20011;-65
2024/01/15 04:37:45;;;;;;;56.93;38.27;;;5.50;99.90;;;;;;6306524;22;20070;-64
2024/01/15 04:40:11;;;;;;;60.93;41.00;;;5.50;99.90;;;;;;6306773;22;20081;-65
2024/01/15 04:42:37;;;;;;;56.97;37.70;;;5.40;99.90;;;;;;6306979;22;19996;-65
2024/01/15 04:45:03;;;;;;;54.80;37.73;;;5.40;99.90;;;;;;6306660;22;20015;-65
2024/01/15 04:47:29;;;;;;;56.47;38.83;;;5.40;99.90;;;;;;6306414;22;20019;-65
2024/01/15 04:49:55;;;;;;;55.13;38.97;;;5.40;99.90;;;;;;6307113;22;20096;-64
2024/01/15 04:52:20;;;;;;;54.83;37.80;;;5.40;99.90;;;;;;6306823;22;20003;-65
2024/01/15 04:54:46;;;;;;;59.10;38.57;;;5.40;99.90;;;;;;6307043;22;20003;-66
2024/01/15 04:57:12;;;;;;;60.43;39.47;;;5.40;99.90;;;;;;6306508;22;20010;-64
2024/01/15 04:59:37;;;;;;;53.80;37.63;;;5.40;99.90;;;;;;6306540;22;20333;-64
2024/01/15 05:02:03;;;;;;;53.17;37.90;;;5.40;99.90;;;;;;6306831;22;20003;-64
2024/01/15 05:04:29;;;;;;;58.47;38.83;;;5.40;99.90;;;;;;6307021;22;20007;-64
2024/01/15 05:06:55;;;;;;;52.23;37.83;;;5.40;99.90;;;;;;6306873;22;20082;-64
2024/01/15 05:09:21;;;;;;;55.00;36.80;;;5.40;99.90;;;;;;6306528;22;20440;-64
2024/01/15 05:11:46;;;;;;;48.00;34.67;;;5.40;99.90;;;;;;6306886;22;19991;-65
2024/01/15 05:14:12;;;;;;;56.13;36.67;;;5.40;99.90;;;;;;6306861;22;20003;-64
2024/01/15 05:16:39;;;;;;;56.60;38.23;;;5.40;99.90;;;;;;6306726;22;20000;-65
2024/01/15 05:19:05;;;;;;;59.27;37.73;;;5.30;99.90;;;;;;6307119;22;20025;-64
2024/01/15 05:21:30;;;;;;;56.80;38.47;;;5.30;99.90;;;;;;6305260;22;20003;-66
2024/01/15 05:23:56;;;;;;;58.07;38.23;;;5.30;99.90;;;;;;6306619;22;20007;-65
2024/01/15 05:26:22;;;;;;;53.47;35.63;;;5.30;99.90;;;;;;6306485;22;20075;-65
2024/01/15 05:28:48;;;;;;;55.03;36.97;;;5.30;99.90;;;;;;6306019;22;20003;-65
2024/01/15 05:31:14;;;;;;;54.47;36.47;;;5.30;99.90;;;;;;6306156;22;19995;-64
2024/01/15 05:33:40;;;;;;;49.83;35.00;;;5.30;99.90;;;;;;6306733;22;20026;-65
2024/01/15 05:36:06;;;;;;;54.80;36.00;;;5.30;99.90;;;;;;6306739;22;20035;-65
2024/01/15 05:38:32;;;;;;;48.90;35.13;;;5.30;99.90;;;;;;6307216;22;20015;-64
2024/01/15 05:40:57;;;;;;;52.53;33.47;;;5.30;99.90;;;;;;6306764;22;19999;-64
2024/01/15 05:43:23;;;;;;;49.70;34.80;;;5.30;99.90;;;;;;6279290;22;20003;-64
2024/01/15 05:45:49;;;;;;;60.03;37.30;;;5.30;99.90;;;;;;6306450;22;20011;-65
2024/01/15 05:48:15;;;;;;;52.00;34.73;;;5.30;99.90;;;;;;6306543;22;20007;-64
2024/01/15 05:50:41;;;;;;;51.73;34.60;;;5.30;99.90;;;;;;6306654;22;20074;-65
2024/01/15 05:53:07;;;;;;;52.23;34.53;;;5.30;99.90;;;;;;6306771;22;20010;-64
2024/01/15 07:34:16;;;;;;;58.93;40.37;;;5.30;99.90;;;;;;6223162;22;1566834;-64
2024/01/15 07:36:44;;;;;;;63.57;40.87;;;5.30;99.90;;;;;;6249342;22;20406;-65
2024/01/15 07:39:10;;;;;;;60.17;40.63;;;5.30;99.90;;;;;;6277423;22;19995;-64
2024/01/15 07:41:36;;;;;;;62.73;40.33;;;5.40;99.90;;;;;;6277159;22;20439;-64
2024/01/15 07:44:02;;;;;;;59.17;40.53;;;5.40;99.90;;;;;;6277024;22;20007;-65
2024/01/15 07:46:28;;;;;;;57.50;41.33;;;5.40;99.90;;;;;;6277078;22;19999;-64
2024/01/15 07:48:56;;;;;;;62.30;41.90;;;5.40;99.90;;;;;;6276644;22;20010;-64
2024/01/15 07:51:23;;;;;;;61.47;41.70;;;5.50;99.90;;;;;;6273311;22;20437;-65
2024/01/15 07:53:49;;;;;;;59.80;39.73;;;5.50;99.90;;;;;;6273545;22;20027;-65
2024/01/15 07:56:15;;;;;;;63.93;39.90;;;5.50;99.90;;;;;;6276623;22;19999;-65
2024/01/15 07:58:42;;;;;;;66.63;41.00;;;5.50;99.90;;;;;;6276530;22;20414;-65
2024/01/15 08:01:08;;;;;;;71.63;43.70;;;5.50;99.90;;;;;;6276500;22;20432;-65
2024/01/15 08:03:33;;;;;;;63.10;43.53;;;5.60;99.90;;;;;;6276363;22;20078;-65
2024/01/15 08:06:00;;;;;;;67.10;46.90;;;5.60;99.90;;;;;;6276309;22;19996;-65
2024/01/15 08:08:26;;;;;;;72.77;48.80;;;5.60;99.90;;;;;;6276700;22;19995;-65
2024/01/15 08:10:55;;;;;;;73.53;49.30;;;5.70;99.90;;;;;;6276108;22;20012;-65
2024/01/15 08:13:21;;;;;;;69.23;48.40;;;5.60;99.90;;;;;;6276783;22;20377;-72
2024/01/15 08:15:47;;;;;;;69.30;47.17;;;5.60;99.90;;;;;;6276700;22;20002;-64
2024/01/15 08:18:13;;;;;;;76.50;51.33;;;5.60;99.90;;;;;;6276527;22;20008;-64
2024/01/15 08:20:39;;;;;;;1999.90;334.70;;;5.60;99.90;;;;;;6276607;22;19999;-65
2024/01/15 08:23:05;;;;;;;82.83;53.27;;;5.60;99.90;;;;;;6276167;22;20099;-65
2024/01/15 08:25:31;;;;;;;69.97;48.27;;;5.70;99.90;;;;;;6276863;22;19999;-64
2024/01/15 08:27:57;;;;;;;68.67;48.10;;;5.70;99.90;;;;;;6277443;22;20000;-65
2024/01/15 08:30:27;;;;;;;74.63;50.57;;;5.60;99.90;;;;;;6277207;22;20034;-65
2024/01/15 08:32:53;;;;;;;73.97;49.07;;;5.60;99.90;;;;;;6276951;22;20061;-65
2024/01/15 08:35:22;;;;;;;69.30;50.03;;;5.60;99.90;;;;;;6277114;22;20010;-65
2024/01/15 08:37:54;;;;;;;71.90;50.50;;;5.60;99.90;;;;;;6276666;22;20004;-65
2024/01/15 08:51:48;;;;;;;251.70;72.17;;;5.60;99.90;;;;;;6124094;23;20032;-64
2024/01/15 09:02:20;;;;;;;138.05;99.63;;;5.70;99.90;;;;;;6036674;23;20011;-65
2024/01/15 09:05:10;;;;;;;94.20;63.87;;;5.80;99.90;;;;;;6008626;23;20421;-64
2024/01/15 09:07:36;;;;;;;96.30;61.53;;;5.80;99.90;;;;;;6122632;23;20006;-65
2024/01/15 09:10:02;;;;;;;92.67;59.67;;;5.80;99.90;;;;;;6132381;22;20014;-65
2024/01/15 09:12:29;;;;;;;93.70;60.77;;;5.80;99.90;;;;;;6276029;22;20006;-64
2024/01/15 09:14:55;;;;;;;95.87;60.80;;;5.90;99.90;;;;;;6276168;22;20025;-64
2024/01/15 09:17:24;;;;;;;84.73;56.87;;;5.90;99.90;;;;;;6276099;22;20004;-64
2024/01/15 09:19:50;;;;;;;83.30;55.17;;;5.90;99.90;;;;;;6276745;22;20015;-65
2024/01/15 09:22:18;;;;;;;83.63;55.33;;;5.90;99.90;;;;;;6276266;22;20376;-64
2024/01/15 09:24:47;;;;;;;81.20;54.53;;;6.00;99.90;;;;;;6276130;22;20082;-64
2024/01/15 09:27:13;;;;;;;83.00;53.90;;;6.00;99.90;;;;;;6276127;22;20000;-65
2024/01/15 09:29:41;;;;;;;81.90;55.30;;;6.00;99.90;;;;;;6275772;22;20014;-65
2024/01/15 09:32:07;;;;;;;80.10;53.60;;;6.00;99.90;;;;;;6276257;22;20318;-64
2024/01/15 09:34:36;;;;;;;81.63;53.80;;;6.10;99.90;;;;;;6275790;22;20434;-67
2024/01/15 09:37:03;;;;;;;79.70;50.40;;;6.10;99.90;;;;;;6276589;22;20369;-65
2024/01/15 09:39:30;;;;;;;68.07;45.90;;;6.10;99.90;;;;;;6275964;22;19996;-65
2024/01/15 09:41:57;;;;;;;63.07;42.80;;;6.10;99.90;;;;;;6276060;22;20000;-65
2024/01/15 09:44:23;;;;;;;63.77;43.67;;;6.10;99.90;;;;;;6275967;22;20475;-65
2024/01/15 09:46:50;;;;;;;66.40;44.07;;;6.20;99.90;;;;;;6276262;22;20414;-66
2024/01/15 09:49:19;;;;;;;63.63;42.30;;;6.20;99.90;;;;;;6275449;22;20382;-64
2024/01/15 09:51:45;;;;;;;66.63;42.70;;;6.20;99.90;;;;;;6273792;22;20007;-65
2024/01/15 09:54:13;;;;;;;66.20;42.90;;;6.20;99.90;;;;;;6274280;22;19996;-65
2024/01/15 09:56:39;;;;;;;68.33;41.93;;;6.20;99.90;;;;;;6275646;22;20027;-65
2024/01/15 09:59:06;;;;;;;61.03;41.73;;;6.30;99.90;;;;;;6248948;22;20330;-64
2024/01/15 10:01:35;;;;;;;63.97;40.53;;;6.30;99.90;;;;;;6276408;22;20008;-64
2024/01/15 10:04:01;;;;;;;60.87;40.00;;;6.30;99.90;;;;;;6276707;22;20007;-65
2024/01/15 10:06:28;;;;;;;59.10;38.20;;;6.30;99.90;;;;;;6247052;22;20031;-65
2024/01/15 10:08:55;;;;;;;60.43;37.97;;;6.30;99.90;;;;;;6273672;22;20304;-65
2024/01/15 10:11:21;;;;;;;53.57;34.67;;;6.40;99.90;;;;;;6275031;22;20357;-65
2024/01/15 10:13:50;;;;;;;53.43;35.67;;;6.40;99.90;;;;;;6274726;22;20003;-65
2024/01/15 10:16:16;;;;;;;55.13;37.50;;;6.40;99.90;;;;;;6274883;22;20489;-65
2024/01/15 10:29:39;;;;;;;61.60;40.67;;;6.60;99.90;;;;;;6123860;23;20076;-65
2024/01/15 10:36:39;;;;;;;62.47;40.73;;;6.50;99.90;;;;;;6063851;23;20033;-64
2024/01/15 10:39:07;;;;;;;65.00;41.00;;;;;;;;;;5985057;23;20098;-64
2024/01/15 10:42:06;;;;;;;72.03;42.70;;;;;;;;;;6008430;23;20012;-65
2024/01/15 10:44:32;;;;;;;70.93;43.33;;;;;;;;;;5984476;23;20399;-64
2024/01/15 10:46:58;;;;;;;70.83;41.97;;;;;;;;;;6066545;23;20003;-65
2024/01/15 10:49:30;;;;;;;78.50;43.80;;;;;;;;;;6106696;22;20088;-65
2024/01/15 10:51:56;;;;;;;65.90;43.73;;;;;;;;;;6277751;22;20086;-64
2024/01/15 10:54:23;;;;;;;66.00;43.53;;;;;;;;;;6277746;22;20000;-64
2024/01/15 10:56:53;;;;;;;69.97;45.53;;;;;;;;;;6277504;22;20338;-64
2024/01/15 10:59:22;;;;;;;66.37;42.80;;;;;;;;;;6250494;22;20315;-65
2024/01/15 11:01:49;;;;;;;63.77;42.90;;;;;;;;;;6277606;22;19999;-65
2024/01/15 11:04:16;;;;;;;71.03;43.37;;;;;;;;;;6251103;22;19999;-64
2024/01/15 11:06:46;;;;;;;66.73;44.90;;;;;;;;;;6277827;22;19996;-64
2024/01/15 11:09:13;;;;;;;59.87;41.77;;;;;;;;;;6277431;22;20010;-65
2024/01/15 11:11:44;;;;;;;62.10;42.73;;;;;;;;;;6277534;22;20004;-64
2024/01/15 11:14:10;;;;;;;66.57;44.03;;;;;;;;;;6277865;22;20472;-64
2024/01/15 11:16:59;;;;;;;64.80;42.20;;;;;;;;;;6277840;22;20004;-64
2024/01/15 11:19:26;;;;;;;67.57;42.67;;;;;;;;;;6258584;22;20490;-64
2024/01/15 11:21:53;;;;;;;58.80;41.07;;;;;;;;;;6277870;22;20007;-64
2024/01/15 11:24:36;;;;;;;64.53;41.20;;;6.50;99.90;;;;;;6277726;22;19996;-63
2024/01/15 11:27:01;;;;;;;;;;;6.90;99.90;;;;;;6278217;22;20325;-64
2024/01/15 11:29:27;;;;;;;62.43;40.07;;;7.00;99.90;;;;;;6277369;22;19906;-64
2024/01/15 11:31:57;;;;;;;65.00;41.37;;;7.00;99.90;;;;;;6277540;22;19996;-65
2024/01/15 11:35:01;;;;;;;62.90;40.43;;;7.00;99.90;;;;;;6277047;22;20311;-69
2024/01/15 11:37:46;;;;;;;66.80;42.40;;;7.00;99.90;;;;;;6277154;22;20006;-71
2024/01/15 11:40:14;;;;;;;77.77;40.57;;;7.00;99.90;;;;;;6277764;22;20015;-66
2024/01/15 11:42:40;;;;;;;75.37;45.30;;;;;;;;;;6277123;22;19996;-68
2024/01/15 11:45:06;;;;;;;69.70;44.27;;;;;;;;;;6277281;22;20050;-65
2024/01/15 11:47:51;;;;;;;64.93;42.07;;;;;;;;;;6278005;22;20073;-65
2024/01/15 11:50:18;;;;;;;69.23;41.53;;;;;;;;;;6278406;22;20336;-65
2024/01/15 11:52:50;;;;;;;61.50;41.27;;;;;;;;;;6278061;22;20010;-65
2024/01/15 12:16:48;;;;;;;53.10;33.90;;;;;;;;;;6184109;23;20035;-64
2024/01/15 12:22:27;;;;;;;48.58;32.33;;;;;;;;;;6039550;23;20015;-64
2024/01/15 12:24:54;;;;;;;46.50;31.33;;;;;;;;;;6183255;23;20009;-64
2024/01/15 12:27:21;;;;;;;46.50;30.80;;;;;;;;;;6194015;22;20393;-64
2024/01/15 12:29:47;;;;;;;43.30;30.13;;;;;;;;;;6276681;22;20311;-65
2024/01/15 12:32:13;;;;;;;48.23;31.70;;;;;;;;;;6276659;22;20004;-64
2024/01/15 12:34:39;;;;;;;46.87;31.33;;;;;;;;;;6276670;22;20011;-64
2024/01/15 12:37:07;;;;;;;45.87;28.90;;;;;;;;;;6276918;22;20376;-64
2024/01/15 12:39:35;;;;;;;45.87;30.60;;;;;;;;;;6276650;22;20038;-65
2024/01/15 12:42:02;;;;;;;46.60;29.40;;;;;;;;;;6276940;22;20071;-66
2024/01/15 12:44:29;;;;;;;45.63;30.87;;;;;;;;;;6276883;22;20000;-64
2024/01/15 12:46:55;;;;;;;46.80;31.80;;;;;;;;;;6276812;22;20433;-65
2024/01/15 12:49:22;;;;;;;46.03;32.37;;;;;;;;;;6276724;22;20086;-64
2024/01/15 12:51:54;;;;;;;54.83;33.43;;;;;;;;;;6276471;22;20491;-65
2024/01/15 12:54:21;;;;;;;58.08;33.47;;;;;;;;;;6276240;22;20418;-65
2024/01/15 12:56:47;;;;;;;49.83;33.50;;;;;;;;;;6276906;22;20007;-65
2024/01/15 12:59:13;;;;;;;50.37;33.43;;;;;;;;;;6276393;22;20422;-65
2024/01/15 13:01:41;;;;;;;56.63;36.70;;;;;;;;;;6276335;22;20038;-64
2024/01/15 13:04:08;;;;;;;63.63;37.90;;;;;;;;;;6276092;22;20067;-64
2024/01/15 13:06:35;;;;;;;57.97;37.67;;;;;;;;;;6276206;22;20004;-65
2024/01/15 13:09:01;;;;;;;59.90;38.13;;;;;;;;;;6275963;22;20000;-64
2024/01/15 13:11:28;;;;;;;57.17;37.83;;;;;;;;;;6276143;22;20392;-63
2024/01/15 13:13:54;;;;;;;61.27;37.87;;;;;;;;;;6276217;22;20291;-65
2024/01/15 13:16:20;;;;;;;54.23;37.37;;;;;;;;;;6275974;22;20000;-64
2024/01/15 13:18:47;;;;;;;53.43;37.73;;;;;;;;;;6276158;22;20056;-64
2024/01/15 13:21:13;;;;;;;56.93;38.37;;;;;;;;;;6276231;22;20004;-64
2024/01/15 13:23:39;;;;;;;60.93;38.20;;;;;;;;;;6276038;22;20076;-65
2024/01/15 13:26:05;;;;;;;58.17;39.10;;;;;;;;;;6276739;22;20377;-64
2024/01/15 13:28:31;;;;;;;56.70;38.73;;;;;;;;;;6276765;22;20023;-65
2024/01/15 13:30:58;;;;;;;56.83;37.83;;;;;;;;;;6276830;22;20011;-65
2024/01/15 13:33:29;;;;;;;56.17;38.70;;;;;;;;;;6276694;22;20034;-65
2024/01/15 13:55:33;;;;;;;50.57;33.33;;;;;;;;;;6123201;23;20017;-65
2024/01/15 13:57:59;;;;;;;47.30;30.63;;;;;;;;;;6063126;23;20011;-65
2024/01/15 14:00:25;;;;;;;41.03;26.83;;;;;;;;;;6117549;23;20424;-65
2024/01/15 14:02:51;;;;;;;36.30;26.20;;;;;;;;;;6181943;22;20004;-64
2024/01/15 14:05:18;;;;;;;42.07;27.07;;;;;;;;;;6275955;22;20330;-64
2024/01/15 14:07:44;;;;;;;38.23;25.03;;;;;;;;;;6275897;22;20331;-65
2024/01/15 14:10:10;;;;;;;39.20;25.23;;;;;;;;;;6276085;22;20015;-65
2024/01/15 14:12:36;;;;;;;40.33;25.87;;;;;;;;;;6248825;22;20334;-64
2024/01/15 14:15:03;;;;;;;39.07;26.30;;;;;;;;;;6276002;22;20343;-65
2024/01/15 14:17:29;;;;;;;38.73;25.77;;;;;;;;;;6275921;22;20299;-64
2024/01/15 14:19:56;;;;;;;38.93;25.63;;;;;;;;;;6275827;22;20004;-64
2024/01/15 14:22:22;;;;;;;32.97;22.40;;;;;;;;;;6277166;22;20010;-65
2024/01/15 14:24:48;;;;;;;28.90;21.17;;;;;;;;;;6277408;22;20487;-64
2024/01/15 14:27:14;;;;;;;33.47;22.90;;;;;;;;;;6277946;22;20003;-64
2024/01/15 14:29:41;;;;;;;36.20;25.47;;;;;;;;;;6277575;22;20326;-66
2024/01/15 14:32:07;;;;;;;33.90;24.03;;;;;;;;;;6277887;22;20525;-65
2024/01/15 14:34:33;;;;;;;37.47;25.77;;;;;;;;;;6277595;22;19991;-64
2024/01/15 14:36:59;;;;;;;40.13;24.87;;;;;;;;;;6277720;22;20069;-65
2024/01/15 14:39:28;;;;;;;34.13;24.17;;;;;;;;;;6278033;22;20322;-65
2024/01/15 14:41:54;;;;;;;36.20;25.93;;;;;;;;;;6277776;22;20061;-65
2024/01/15 14:44:21;;;;;;;35.50;23.40;;;;;;;;;;6277809;22;20000;-65
2024/01/15 14:46:47;;;;;;;30.77;22.53;;;;;;;;;;6277254;22;20004;-64
2024/01/15 14:49:14;;;;;;;35.43;25.50;;;;;;;;;;6277382;22;20011;-65
2024/01/15 14:51:40;;;;;;;50.17;29.20;;;;;;;;;;6251041;22;20000;-65
2024/01/15 14:54:06;;;;;;;52.70;34.73;;;;;;;;;;6276159;22;20006;-65
2024/01/15 14:56:32;;;;;;;50.87;34.20;;;;;;;;;;6275904;22;20132;-70
2024/01/15 14:58:58;;;;;;;49.90;35.50;;;;;;;;;;6278134;22;19999;-65
2024/01/15 15:01:25;;;;;;;47.20;33.43;;;;;;;;;;6276829;22;20139;-65
2024/01/15 15:03:51;;;;;;;51.90;34.43;;;;;;;;;;6274693;22;20398;-64
2024/01/15 15:06:17;;;;;;;50.37;35.17;;;;;;;;;;6277716;22;20079;-65
2024/01/15 15:08:43;;;;;;;51.43;35.17;;;;;;;;;;6278458;22;20054;-64
2024/01/15 15:17:32;;;;;;;49.60;32.53;;;;;;;;;;6276978;22;20626;-65
2024/01/15 15:29:29;;;;;;;49.27;29.30;;;;;;;;;;6277304;22;20014;-64
2024/01/15 15:32:13;;;;;;;43.97;29.53;;;;;;;;;;6276805;22;19996;-66
2024/01/15 15:35:22;;;;;;;48.17;29.17;;;;;;;;;;6277695;22;20045;-65
2024/01/15 15:37:49;;;;;;;41.80;27.13;;;;;;;;;;6154145;23;20377;-65
2024/01/15 15:40:15;;;;;;;37.87;27.10;;;;;;;;;;6233291;23;20373;-65
2024/01/15 15:42:42;;;;;;;38.27;26.07;;;;;;;;;;6246768;23;20000;-65
2024/01/15 15:45:09;;;;;;;34.83;23.40;;;;;;;;;;6246607;23;20031;-64
2024/01/15 15:47:35;;;;;;;41.23;27.03;;;;;;;;;;6219851;23;20000;-65
2024/01/15 15:50:01;;;;;;;42.10;28.70;;;;;;;;;;6246635;23;20316;-65
2024/01/15 15:52:28;;;;;;;44.57;29.30;;;;;;;;;;6246670;23;20008;-65
2024/01/15 15:54:54;;;;;;;44.13;29.47;;;;;;;;;;6246623;23;20008;-65
2024/01/15 15:57:20;;;;;;;45.13;28.93;;;;;;;;;;6246778;23;20331;-65
2024/01/15 15:59:47;;;;;;;42.87;28.93;;;;;;;;;;6246727;23;20437;-65
2024/01/15 16:02:13;;;;;;;42.23;29.23;;;;;;;;;;6247000;23;20008;-65
2024/01/15 16:04:39;;;;;;;50.03;29.40;;;;;;;;;;6246088;23;20399;-65
2024/01/15 16:07:09;;;;;;;38.00;27.13;;;;;;;;;;6246363;23;20445;-65
2024/01/15 16:09:36;;;;;;;44.17;28.97;;;;;;;;;;6246063;23;20478;-66
2024/01/15 16:12:03;;;;;;;42.40;29.27;;;;;;;;;;6246310;23;20051;-79
2024/01/15 16:14:29;;;;;;;44.50;29.77;;;;;;;;;;6246337;23;20008;-79
2024/01/15 16:16:57;;;;;;;49.03;29.90;;;;;;;;;;6246133;23;20418;-78
2024/01/15 16:19:23;;;;;;;45.10;29.80;;;;;;;;;;6245674;23;20012;-78